createdAt,value
2018-07-17T00:00:23.062Z,15.35
2018-07-17T00:02:50.888Z,15.30
2018-07-17T00:05:18.671Z,15.43
2018-07-17T00:07:46.440Z,14.50
2018-07-17T00:10:14.232Z,13.65
2018-07-17T00:12:42.044Z,12.60
2018-07-17T00:15:09.856Z,13.45
2018-07-17T00:17:37.677Z,12.30
2018-07-17T00:20:05.495Z,12.73
2018-07-17T00:22:33.277Z,11.93
2018-07-17T00:25:01.059Z,10.72
2018-07-17T00:27:28.865Z,10.45
2018-07-17T00:29:56.655Z,10.25
2018-07-17T00:32:24.453Z,9.73
2018-07-17T00:34:52.243Z,10.18
2018-07-17T00:37:20.073Z,9.03
2018-07-17T00:39:47.879Z,7.95
2018-07-17T00:42:16.678Z,8.60
2018-07-17T00:44:44.489Z,8.63
2018-07-17T00:47:12.272Z,7.25
2018-07-17T00:49:40.100Z,7.40
2018-07-17T00:52:07.960Z,7.17
2018-07-17T00:54:35.829Z,6.72
2018-07-17T00:57:03.616Z,7.55
2018-07-17T00:59:31.376Z,6.80
2018-07-17T01:02:04.799Z,6.70
2018-07-17T01:04:39.206Z,6.70
2018-07-17T01:07:12.551Z,5.83
2018-07-17T01:09:45.844Z,6.20
2018-07-17T01:12:13.118Z,5.90
2018-07-17T01:15:48.111Z,5.28
2018-07-17T01:18:15.953Z,5.30
2018-07-17T01:20:44.749Z,5.20
2018-07-17T01:23:12.525Z,4.83
2018-07-17T01:25:40.300Z,5.10
2018-07-17T01:28:08.105Z,4.95
2018-07-17T01:30:35.891Z,4.72
2018-07-17T01:33:03.705Z,5.08
2018-07-17T01:35:31.500Z,4.78
2018-07-17T01:37:59.269Z,4.90
2018-07-17T01:40:27.103Z,5.22
2018-07-17T01:42:54.898Z,4.97
2018-07-17T01:45:22.732Z,4.60
2018-07-17T01:47:50.638Z,3.90
2018-07-17T01:50:18.424Z,4.92
2018-07-17T01:52:46.282Z,5.62
2018-07-17T01:55:14.083Z,5.70
2018-07-17T01:57:41.921Z,6.03
2018-07-17T02:00:09.760Z,5.92
2018-07-17T02:02:37.592Z,6.42
2018-07-17T02:05:05.541Z,6.47
2018-07-17T02:07:33.315Z,6.37
2018-07-17T02:10:01.140Z,6.17
2018-07-17T02:12:28.960Z,6.70
2018-07-17T02:14:56.838Z,7.08
2018-07-17T02:17:25.703Z,6.92
2018-07-17T02:19:53.529Z,6.15
2018-07-17T02:22:21.362Z,6.65
2018-07-17T02:24:49.244Z,6.85
2018-07-17T02:27:17.024Z,8.00
2018-07-17T02:29:45.763Z,8.18
2018-07-17T02:32:13.632Z,8.43
2018-07-17T02:34:42.489Z,8.28
2018-07-17T02:37:10.316Z,8.18
2018-07-17T02:39:39.129Z,9.50
2018-07-17T02:42:07.091Z,8.08
2018-07-17T02:44:34.870Z,8.83
2018-07-17T02:47:02.660Z,9.75
2018-07-17T02:49:30.523Z,9.05
2018-07-17T02:51:58.299Z,8.70
2018-07-17T02:54:26.154Z,9.35
2018-07-17T02:56:54.998Z,9.73
2018-07-17T02:59:22.890Z,10.23
2018-07-17T03:01:51.818Z,9.38
2018-07-17T03:04:20.275Z,9.60
2018-07-17T03:06:48.186Z,10.38
2018-07-17T03:09:16.044Z,9.30
2018-07-17T03:11:44.898Z,10.38
2018-07-17T03:14:12.739Z,9.48
2018-07-17T03:16:40.575Z,9.90
2018-07-17T03:19:08.397Z,10.18
2018-07-17T03:21:36.263Z,10.50
2018-07-17T03:24:04.092Z,10.72
2018-07-17T03:26:31.945Z,10.30
2018-07-17T03:28:59.867Z,10.32
2018-07-17T03:31:27.642Z,9.90
2018-07-17T03:33:55.433Z,11.25
2018-07-17T03:36:23.292Z,9.35
2018-07-17T03:38:51.059Z,10.90
2018-07-17T03:41:18.875Z,10.48
2018-07-17T03:43:46.735Z,11.45
2018-07-17T03:46:14.524Z,11.20
2018-07-17T03:48:42.352Z,12.30
2018-07-17T03:51:10.153Z,11.93
2018-07-17T03:53:39.037Z,12.15
2018-07-17T03:56:06.914Z,12.30
2018-07-17T03:58:34.770Z,12.25
2018-07-17T04:01:02.643Z,12.80
2018-07-17T04:03:30.478Z,13.25
2018-07-17T04:05:59.272Z,12.85
2018-07-17T04:08:27.048Z,12.60
2018-07-17T04:10:54.934Z,12.82
2018-07-17T04:13:22.746Z,13.45
2018-07-17T04:15:50.617Z,14.47
2018-07-17T04:18:18.540Z,13.80
2018-07-17T04:20:46.373Z,14.20
2018-07-17T04:23:14.191Z,14.20
2018-07-17T04:25:42.049Z,14.38
2018-07-17T04:28:09.855Z,14.30
2018-07-17T04:30:37.637Z,14.43
2018-07-17T04:33:07.444Z,14.68
2018-07-17T04:35:35.317Z,13.35
2018-07-17T04:38:03.164Z,14.35
2018-07-17T04:40:31.026Z,13.50
2018-07-17T04:42:58.849Z,14.85
2018-07-17T04:45:26.632Z,14.58
2018-07-17T04:47:54.459Z,14.85
2018-07-17T04:50:22.249Z,14.80
2018-07-17T04:52:51.145Z,14.30
2018-07-17T04:55:19.116Z,15.23
2018-07-17T04:57:46.910Z,14.95
2018-07-17T05:00:14.739Z,16.35
2018-07-17T05:02:42.553Z,15.48
2018-07-17T05:05:11.380Z,16.10
2018-07-17T05:07:39.222Z,15.70
2018-07-17T05:10:07.280Z,18.70
2018-07-17T05:12:35.066Z,17.98
2018-07-17T05:15:03.073Z,19.27
2018-07-17T05:17:30.933Z,19.48
2018-07-17T05:19:58.759Z,20.82
2018-07-17T05:22:26.695Z,21.87
2018-07-17T05:24:54.513Z,22.48
2018-07-17T05:27:22.392Z,20.20
2018-07-17T05:29:50.240Z,20.85
2018-07-17T05:32:18.089Z,21.25
2018-07-17T05:34:45.886Z,24.20
2018-07-17T05:37:13.748Z,25.30
2018-07-17T05:39:41.656Z,23.22
2018-07-17T05:42:09.480Z,24.52
2018-07-17T05:44:37.276Z,23.57
2018-07-17T05:47:05.035Z,25.32
2018-07-17T05:56:15.894Z,31.15
2018-07-17T05:58:43.703Z,34.20
2018-07-17T06:01:11.569Z,35.28
2018-07-17T06:03:40.568Z,32.15
2018-07-17T06:06:08.460Z,33.48
2018-07-17T06:08:38.412Z,32.35
2018-07-17T06:11:06.357Z,34.20
2018-07-17T06:13:34.381Z,33.63
2018-07-17T06:16:02.277Z,35.92
2018-07-17T06:18:30.141Z,34.20
2018-07-17T06:20:57.952Z,31.85
2018-07-17T06:23:25.816Z,35.15
2018-07-17T06:25:53.732Z,33.40
2018-07-17T06:28:21.634Z,33.18
2018-07-17T06:30:50.485Z,32.80
2018-07-17T06:33:18.398Z,32.55
2018-07-17T06:35:46.289Z,30.88
2018-07-17T06:38:14.158Z,30.45
2018-07-17T06:40:42.049Z,30.12
2018-07-17T06:43:09.865Z,29.00
2018-07-17T06:45:38.709Z,29.15
2018-07-17T06:48:06.572Z,29.50
2018-07-17T06:50:34.526Z,27.80
2018-07-17T06:53:02.285Z,27.20
2018-07-17T06:55:30.109Z,26.97
2018-07-17T06:57:58.029Z,26.90
2018-07-17T07:00:25.870Z,27.77
2018-07-17T07:02:53.757Z,24.72
2018-07-17T07:05:21.669Z,26.23
2018-07-17T07:07:49.484Z,25.57
2018-07-17T07:10:17.234Z,26.40
2018-07-17T07:12:45.022Z,25.60
2018-07-17T07:15:12.935Z,24.92
2018-07-17T07:17:40.843Z,25.37
2018-07-17T07:20:08.826Z,26.15
2018-07-17T07:22:36.780Z,25.62
2018-07-17T07:25:04.647Z,25.75
2018-07-17T07:27:32.517Z,24.07
2018-07-17T07:30:01.415Z,26.50
2018-07-17T07:32:29.326Z,25.65
2018-07-17T07:34:57.215Z,25.35
2018-07-17T07:37:25.200Z,23.47
2018-07-17T07:39:53.107Z,23.42
2018-07-17T07:42:21.028Z,23.47
2018-07-17T07:44:48.907Z,22.80
2018-07-17T07:47:16.761Z,24.02
2018-07-17T07:49:44.643Z,24.65
2018-07-17T07:52:12.506Z,24.07
2018-07-17T07:54:40.369Z,24.00
2018-07-17T07:57:08.503Z,23.02
2018-07-17T07:59:36.406Z,20.88
2018-07-17T08:02:05.367Z,22.05
2018-07-17T08:04:33.332Z,21.05
2018-07-17T08:07:02.299Z,18.05
2018-07-17T08:09:30.193Z,16.97
2018-07-17T08:11:58.081Z,17.87
2018-07-17T08:14:25.865Z,17.60
2018-07-17T08:16:53.699Z,15.83
2018-07-17T08:19:21.523Z,15.58
2018-07-17T08:21:49.494Z,12.73
2018-07-17T08:24:17.425Z,12.63
2018-07-17T08:26:45.335Z,11.73
2018-07-17T08:29:13.182Z,8.95
2018-07-17T08:31:41.057Z,7.75
2018-07-17T08:34:09.013Z,7.05
2018-07-17T08:36:36.911Z,6.67
2018-07-17T08:39:06.579Z,8.20
2018-07-17T08:41:34.406Z,7.72
2018-07-17T08:44:02.235Z,7.50
2018-07-17T08:46:30.091Z,7.95
2018-07-17T08:48:57.935Z,7.33
2018-07-17T08:51:25.807Z,5.28
2018-07-17T08:53:54.671Z,6.05
2018-07-17T08:56:23.482Z,5.70
2018-07-17T08:58:51.280Z,4.12
2018-07-17T09:01:19.279Z,3.87
2018-07-17T09:03:47.207Z,4.45
2018-07-17T09:06:15.120Z,5.55
2018-07-17T09:08:42.992Z,1.37
2018-07-17T09:11:10.887Z,1.40
2018-07-17T09:13:38.771Z,0.90
2018-07-17T09:16:06.610Z,1.47
2018-07-17T09:18:35.570Z,1.55
2018-07-17T09:21:04.531Z,1.27
2018-07-17T09:23:32.386Z,1.20
2018-07-17T09:26:00.236Z,1.50
2018-07-17T09:28:28.126Z,1.35
2018-07-17T09:31:00.804Z,1.45
2018-07-17T09:33:30.788Z,0.90
2018-07-17T09:35:59.278Z,0.80
2018-07-17T09:38:27.143Z,0.65
2018-07-17T09:40:54.958Z,1.07
2018-07-17T09:43:24.902Z,0.70
2018-07-17T09:45:52.776Z,0.60
2018-07-17T09:48:20.661Z,0.80
2018-07-17T09:50:48.529Z,0.62
2018-07-17T09:53:16.435Z,0.72
2018-07-17T09:55:44.260Z,0.65
2018-07-17T09:58:13.096Z,0.62
2018-07-17T10:00:46.526Z,0.47
2018-07-17T10:03:14.450Z,0.50
2018-07-17T10:05:42.375Z,0.78
2018-07-17T10:08:10.234Z,0.50
2018-07-17T10:10:38.117Z,0.50
2018-07-17T10:13:06.154Z,0.50
2018-07-17T10:15:35.149Z,0.30
2018-07-17T10:18:03.072Z,0.47
2018-07-17T10:20:30.981Z,0.60
2018-07-17T10:22:58.867Z,0.53
2018-07-17T10:25:28.756Z,0.47
2018-07-17T10:27:56.622Z,0.50
2018-07-17T10:30:24.545Z,0.50
2018-07-17T10:32:52.447Z,0.40
2018-07-17T10:35:20.265Z,0.40
2018-07-17T10:37:48.173Z,0.40
2018-07-17T10:40:16.032Z,0.50
2018-07-17T10:42:43.932Z,0.40
2018-07-17T10:45:11.775Z,0.75
2018-07-17T10:47:39.804Z,0.50
2018-07-17T10:50:07.764Z,0.60
2018-07-17T10:52:37.723Z,0.62
2018-07-17T10:55:05.614Z,0.50
2018-07-17T10:57:33.490Z,0.78
2018-07-17T11:00:01.436Z,0.50
2018-07-17T11:02:29.354Z,0.60
2018-07-17T11:04:58.292Z,0.60
2018-07-17T11:07:26.151Z,0.40
2018-07-17T11:09:53.997Z,0.30
2018-07-17T11:12:21.870Z,0.50
2018-07-17T11:14:49.695Z,0.30
2018-07-17T11:17:17.504Z,0.50
2018-07-17T11:19:45.349Z,0.30
2018-07-17T11:22:13.228Z,0.30
2018-07-17T11:24:41.079Z,0.47
2018-07-17T11:27:08.980Z,0.30
2018-07-17T11:29:36.950Z,0.68
2018-07-17T11:32:05.925Z,0.75
2018-07-17T11:34:33.869Z,0.45
2018-07-17T11:37:05.488Z,0.50
2018-07-17T11:39:33.360Z,0.30
2018-07-17T11:42:01.273Z,1.07
2018-07-17T11:44:29.407Z,0.85
2018-07-17T11:46:57.340Z,0.40
2018-07-17T11:49:25.191Z,0.50
2018-07-17T11:51:53.077Z,0.30
2018-07-17T11:54:20.966Z,0.40
2018-07-17T11:56:48.873Z,0.40
2018-07-17T11:59:18.773Z,0.30
2018-07-17T12:01:46.507Z,0.57
2018-07-17T12:04:15.335Z,0.40
2018-07-17T12:06:43.201Z,0.65
2018-07-17T12:09:11.058Z,0.45
2018-07-17T12:11:39.446Z,0.65
2018-07-17T12:14:07.310Z,0.85
2018-07-17T12:16:35.129Z,0.60
2018-07-17T12:19:04.071Z,0.50
2018-07-17T12:21:31.913Z,0.55
2018-07-17T12:24:00.792Z,0.60
2018-07-17T12:26:28.806Z,0.80
2018-07-17T12:28:56.669Z,1.20
2018-07-17T12:31:24.553Z,0.68
2018-07-17T12:33:52.537Z,3.75
2018-07-17T12:36:20.477Z,1.35
2018-07-17T12:38:48.296Z,1.27
2018-07-17T12:41:16.221Z,0.90
2018-07-17T12:43:44.120Z,0.90
2018-07-17T12:46:12.874Z,1.20
2018-07-17T12:48:40.717Z,0.98
2018-07-17T12:51:08.595Z,1.00
2018-07-17T12:53:36.519Z,1.00
2018-07-17T12:56:04.576Z,0.80
2018-07-17T12:58:32.406Z,1.22
2018-07-17T13:01:00.285Z,0.68
2018-07-17T13:03:28.081Z,0.98
2018-07-17T13:05:56.090Z,2.52
2018-07-17T13:08:23.980Z,2.83
2018-07-17T13:10:51.918Z,0.72
2018-07-17T13:13:19.827Z,0.50
2018-07-17T13:15:47.765Z,0.53
2018-07-17T13:18:15.621Z,0.62
2018-07-17T13:20:43.766Z,0.50
2018-07-17T13:23:11.724Z,1.60
2018-07-17T13:25:39.745Z,0.60
2018-07-17T13:28:07.715Z,0.53
2018-07-17T13:30:35.605Z,0.50
2018-07-17T13:33:03.542Z,0.50
2018-07-17T13:35:31.462Z,0.50
2018-07-17T13:37:59.334Z,0.50
2018-07-17T13:40:27.247Z,0.20
2018-07-17T13:42:55.178Z,0.50
2018-07-17T13:45:23.065Z,0.30
2018-07-17T13:47:50.997Z,0.30
2018-07-17T13:57:01.931Z,0.70
2018-07-17T13:59:29.838Z,0.30
2018-07-17T14:01:57.729Z,0.70
2018-07-17T14:04:25.591Z,0.50
2018-07-17T14:06:53.549Z,0.50
2018-07-17T14:09:21.319Z,0.50
2018-07-17T14:11:49.277Z,0.50
2018-07-17T14:14:17.117Z,0.40
2018-07-17T14:16:45.014Z,0.30
2018-07-17T14:19:12.819Z,0.50
2018-07-17T14:21:40.721Z,0.42
2018-07-17T14:24:08.514Z,0.40
2018-07-17T14:26:36.432Z,0.55
2018-07-17T14:29:04.478Z,0.50
2018-07-17T14:31:32.353Z,0.30
2018-07-17T14:34:00.242Z,0.45
2018-07-17T14:36:28.114Z,0.30
2018-07-17T14:38:56.015Z,0.37
2018-07-17T14:41:23.932Z,0.28
2018-07-17T14:43:51.782Z,0.30
2018-07-17T14:46:19.668Z,0.37
2018-07-17T14:48:47.544Z,0.30
2018-07-17T14:51:15.448Z,0.30
2018-07-17T14:53:44.349Z,0.53
2018-07-17T14:56:12.256Z,0.35
2018-07-17T14:58:40.186Z,0.20
2018-07-17T15:01:08.140Z,0.33
2018-07-17T15:03:36.021Z,0.33
2018-07-17T15:06:04.193Z,0.30
2018-07-17T15:08:32.163Z,0.40
2018-07-17T15:11:02.176Z,0.60
2018-07-17T15:13:30.050Z,0.40
2018-07-17T15:15:57.990Z,0.30
2018-07-17T15:18:25.869Z,0.30
2018-07-17T15:20:53.769Z,0.20
2018-07-17T15:23:21.616Z,0.30
2018-07-17T15:25:50.547Z,0.25
2018-07-17T15:28:18.420Z,0.30
2018-07-17T15:30:46.270Z,0.25
2018-07-17T15:33:14.173Z,0.20
2018-07-17T15:35:42.019Z,0.23
2018-07-17T15:38:09.898Z,0.40
2018-07-17T15:40:37.783Z,0.30
2018-07-17T15:43:06.224Z,0.30
2018-07-17T15:45:34.008Z,0.30
2018-07-17T15:48:02.362Z,0.30
2018-07-17T15:50:30.196Z,0.30
2018-07-17T15:52:58.039Z,0.20
2018-07-17T15:55:25.924Z,0.40
2018-07-17T15:57:53.804Z,0.30
2018-07-17T16:00:21.674Z,0.45
2018-07-17T16:02:49.542Z,0.28
2018-07-17T16:05:17.435Z,0.50
2018-07-17T16:07:45.319Z,0.30
2018-07-17T16:10:13.193Z,0.40
2018-07-17T16:12:41.069Z,0.30
2018-07-17T16:15:09.029Z,0.20
2018-07-17T16:17:36.895Z,0.30
2018-07-17T16:20:05.261Z,0.30
2018-07-17T16:23:35.796Z,0.40
2018-07-17T16:26:03.762Z,0.33
2018-07-17T16:28:31.510Z,0.30
2018-07-17T16:30:59.419Z,0.53
2018-07-17T16:33:27.313Z,0.30
2018-07-17T16:35:55.205Z,0.30
2018-07-17T16:38:23.054Z,0.30
2018-07-17T16:40:50.908Z,0.30
2018-07-17T16:43:18.865Z,0.30
2018-07-17T16:45:47.753Z,0.35
2018-07-17T16:48:15.757Z,0.20
2018-07-17T16:50:43.652Z,0.40
2018-07-17T16:53:11.581Z,0.25
2018-07-17T16:55:39.398Z,0.30
2018-07-17T16:58:07.200Z,0.20
2018-07-17T17:00:35.069Z,0.20
2018-07-17T17:03:02.910Z,0.30
2018-07-17T17:05:30.983Z,0.20
2018-07-17T17:07:59.887Z,0.28
2018-07-17T17:10:27.786Z,0.45
2018-07-17T17:12:55.746Z,0.30
2018-07-17T17:15:23.625Z,0.20
2018-07-17T17:17:51.545Z,0.28
2018-07-17T17:20:19.639Z,0.20
2018-07-17T17:22:47.640Z,0.35
2018-07-17T17:25:15.548Z,0.30
2018-07-17T17:27:43.368Z,0.30
2018-07-17T17:30:11.224Z,0.30
2018-07-17T17:32:39.129Z,0.33
2018-07-17T17:35:07.000Z,0.40
2018-07-17T17:37:35.907Z,0.40
2018-07-17T17:40:03.765Z,0.30
2018-07-17T17:42:31.500Z,0.40
2018-07-17T17:44:59.316Z,0.40
2018-07-17T17:47:27.224Z,0.30
2018-07-17T17:49:55.074Z,0.57
2018-07-17T17:52:22.907Z,0.30
2018-07-17T17:54:50.661Z,0.50
2018-07-17T17:57:18.470Z,1.00
2018-07-17T17:59:46.342Z,0.40
2018-07-17T18:02:14.228Z,0.45
2018-07-17T18:04:42.047Z,0.40
2018-07-17T18:07:09.855Z,0.75
2018-07-17T18:09:37.723Z,0.50
2018-07-17T18:12:05.737Z,0.30
2018-07-17T18:14:33.554Z,0.50
2018-07-17T18:17:01.382Z,0.42
2018-07-17T18:19:29.167Z,0.40
2018-07-17T18:21:57.008Z,0.40
2018-07-17T18:24:25.042Z,0.30
2018-07-17T18:26:53.102Z,0.50
2018-07-17T18:29:21.019Z,0.40
2018-07-17T18:31:48.933Z,0.40
2018-07-17T18:34:16.824Z,0.30
2018-07-17T18:36:45.696Z,0.50
2018-07-17T18:39:13.560Z,0.50
2018-07-17T18:41:41.675Z,0.42
2018-07-17T18:44:09.519Z,0.40
2018-07-17T18:46:37.426Z,0.72
2018-07-17T18:49:05.250Z,0.60
2018-07-17T18:51:33.082Z,0.47
2018-07-17T18:54:00.962Z,0.30
2018-07-17T18:56:28.826Z,0.40
2018-07-17T18:58:56.723Z,0.30
2018-07-17T19:01:24.608Z,0.53
2018-07-17T19:03:52.402Z,0.70
2018-07-17T19:06:20.253Z,0.40
2018-07-17T19:08:48.119Z,0.53
2018-07-17T19:11:16.032Z,0.60
2018-07-17T19:13:43.882Z,0.50
2018-07-17T19:16:11.749Z,0.45
2018-07-17T19:18:39.641Z,0.47
2018-07-17T19:21:07.479Z,0.30
2018-07-17T19:23:35.435Z,0.30
2018-07-17T19:26:03.281Z,0.30
2018-07-17T19:28:31.224Z,0.40
2018-07-17T19:30:59.098Z,0.53
2018-07-17T19:33:27.053Z,0.30
2018-07-17T19:35:55.954Z,0.30
2018-07-17T19:38:23.917Z,0.20
2018-07-17T19:40:51.872Z,0.30
2018-07-17T19:43:19.784Z,0.30
2018-07-17T19:45:47.659Z,0.20
2018-07-17T19:48:15.597Z,0.40
2018-07-17T19:50:44.413Z,0.25
2018-07-17T19:53:12.329Z,0.50
2018-07-17T19:55:41.204Z,0.50
2018-07-17T19:58:09.153Z,0.47
2018-07-17T20:00:37.170Z,0.33
2018-07-17T20:03:05.176Z,0.30
2018-07-17T20:05:33.078Z,0.35
2018-07-17T20:08:00.978Z,0.78
2018-07-17T20:10:28.799Z,0.30
2018-07-17T20:12:56.635Z,0.40
2018-07-17T20:15:24.451Z,0.40
2018-07-17T20:17:52.274Z,0.88
2018-07-17T20:20:20.120Z,0.70
2018-07-17T20:22:47.957Z,1.25
2018-07-17T20:25:16.050Z,0.40
2018-07-17T20:27:43.898Z,0.30
2018-07-17T20:30:12.769Z,0.40
2018-07-17T20:32:40.625Z,0.40
2018-07-17T20:35:10.582Z,0.50
2018-07-17T20:37:38.488Z,0.30
2018-07-17T20:40:07.335Z,0.53
2018-07-17T20:42:35.134Z,0.40
2018-07-17T20:45:03.035Z,2.10
2018-07-17T20:47:30.863Z,0.60
2018-07-17T20:49:58.736Z,0.30
2018-07-17T20:52:26.719Z,0.33
2018-07-17T20:54:55.597Z,0.62
2018-07-17T20:57:23.451Z,0.20
2018-07-17T20:59:51.394Z,0.80
2018-07-17T21:02:19.193Z,0.42
2018-07-17T21:04:47.110Z,0.72
2018-07-17T21:07:16.068Z,0.30
2018-07-17T21:09:43.867Z,0.30
2018-07-17T21:12:11.724Z,0.60
2018-07-17T21:14:39.580Z,0.23
2018-07-17T21:17:07.344Z,0.35
2018-07-17T21:19:35.135Z,0.40
2018-07-17T21:22:02.960Z,0.30
2018-07-17T21:24:30.808Z,0.37
2018-07-17T21:26:58.667Z,2.33
2018-07-17T21:29:26.522Z,0.60
2018-07-17T21:31:56.410Z,0.57
2018-07-17T21:34:25.454Z,0.40
2018-07-17T21:36:53.270Z,0.40
2018-07-17T21:39:21.112Z,0.45
2018-07-17T21:41:48.917Z,0.55
2018-07-17T21:44:16.785Z,0.40
2018-07-17T21:46:44.588Z,0.40
2018-07-17T21:49:12.412Z,0.62
2018-07-17T21:51:40.212Z,1.15
2018-07-17T21:54:08.007Z,0.70
2018-07-17T21:56:36.775Z,0.90
2018-07-17T21:59:04.668Z,1.42
2018-07-17T22:01:32.492Z,1.12
2018-07-17T22:04:01.318Z,1.37
2018-07-17T22:06:29.125Z,1.47
2018-07-17T22:08:56.945Z,1.22
2018-07-17T22:11:24.776Z,1.40
2018-07-17T22:13:52.633Z,1.00
2018-07-17T22:16:20.459Z,1.12
2018-07-17T22:18:48.297Z,1.00
2018-07-17T22:21:16.077Z,1.10
2018-07-17T22:23:43.839Z,1.30
2018-07-17T22:26:11.670Z,3.58
2018-07-17T22:28:39.495Z,2.25
2018-07-17T22:31:07.337Z,2.80
2018-07-17T22:33:35.166Z,1.82
2018-07-17T22:36:03.023Z,1.30
2018-07-17T22:38:30.856Z,1.42
2018-07-17T22:40:58.709Z,0.98
2018-07-17T22:43:26.559Z,1.27
2018-07-17T22:45:54.449Z,1.25
2018-07-17T22:48:22.236Z,1.30
2018-07-17T22:50:50.136Z,1.27
2018-07-17T22:53:17.915Z,1.20
2018-07-17T22:55:45.729Z,1.15
2018-07-17T22:58:13.583Z,1.30
2018-07-17T23:00:41.425Z,1.57
2018-07-17T23:03:09.326Z,0.80
2018-07-17T23:05:37.272Z,0.90
2018-07-17T23:08:05.239Z,1.35
2018-07-17T23:10:33.018Z,1.00
2018-07-17T23:13:01.874Z,1.30
2018-07-17T23:15:29.744Z,1.45
2018-07-17T23:17:58.627Z,1.87
2018-07-17T23:20:26.463Z,1.27
2018-07-17T23:22:55.558Z,1.40
2018-07-17T23:25:24.487Z,1.80
2018-07-17T23:27:52.549Z,1.55
2018-07-17T23:30:20.445Z,1.60
2018-07-17T23:32:49.548Z,1.45
2018-07-17T23:35:18.070Z,1.52
2018-07-17T23:37:45.955Z,2.20
2018-07-17T23:40:15.106Z,2.30
2018-07-17T23:42:42.995Z,2.22
2018-07-17T23:45:11.026Z,1.82
2018-07-17T23:47:38.937Z,1.62
2018-07-17T23:50:06.859Z,2.27
2018-07-17T23:52:34.727Z,2.65
2018-07-17T23:55:02.783Z,2.02
2018-07-17T23:57:30.647Z,2.40
